Terminal Aerodrome Forecast
Issued by NWS Albany, NY

Home | Current Version | Previous Version | Text Only | Print | Product List | Glossary On
Versions: 1 2 3 4 5 6 7 8 9 10 11 12 13 14
278
FTUS41 KALY 241738
TAFGFL
TAF
KGFL 241738Z 2418/2518 18010KT P6SM SKC
     FM250200 19006KT P6SM FEW250
     FM251400 19010KT P6SM BKN100=

USA.gov is the U.S. government's official web portal to all federal, state and local government web resources and services.